Time;durP1;ratioP1;P1;durP2;ratioP2;P2;SDS_P1;SDS_P2;PMS_P1;PMS_P2;Temp;Humidity;BMP_temperature;BMP_pressure;BME280_temperature;BME280_humidity;BME280_pressure;Samples;Min_cycle;Max_cycle;Signal;HPM_P1;HPM_P2
2021/06/03 00:02:07;;;;;;;31.57;24.33;;;15.40;59.10;;;;;;5052185;28;20437;-66
2021/06/03 00:04:34;;;;;;;8.10;6.70;;;15.40;58.90;;;;;;5051010;28;20927;-67
2021/06/03 00:07:01;;;;;;;6.53;4.70;;;15.30;59.20;;;;;;5051928;28;20847;-66
2021/06/03 00:09:29;;;;;;;5.23;4.27;;;15.20;59.10;;;;;;5051610;28;20445;-66
2021/06/03 00:11:56;;;;;;;8.10;4.97;;;15.10;59.10;;;;;;5052144;28;20433;-66
2021/06/03 00:14:23;;;;;;;103.07;66.67;;;15.00;59.30;;;;;;5051227;28;20448;-67
2021/06/03 00:16:49;;;;;;;8.23;6.83;;;15.00;59.40;;;;;;5051832;28;20502;-67
2021/06/03 00:19:16;;;;;;;110.33;74.50;;;15.00;59.50;;;;;;5051406;28;20436;-67
2021/06/03 00:21:44;;;;;;;20.33;14.93;;;15.00;59.50;;;;;;5052243;28;20437;-66
2021/06/03 00:24:12;;;;;;;9.37;6.87;;;15.00;59.60;;;;;;5055001;28;20475;-66
2021/06/03 00:26:41;;;;;;;61.47;38.30;;;15.00;59.80;;;;;;5055357;28;20488;-67
2021/06/03 00:29:09;;;;;;;9.63;7.93;;;15.00;59.70;;;;;;5054288;28;20436;-67
2021/06/03 00:31:36;;;;;;;6.40;5.10;;;15.00;60.10;;;;;;5055393;28;20490;-66
2021/06/03 00:34:02;;;;;;;9.47;7.33;;;15.00;59.80;;;;;;5054816;28;20448;-67
2021/06/03 00:36:29;;;;;;;9.00;6.80;;;14.90;60.10;;;;;;5055476;28;20443;-66
2021/06/03 00:38:55;;;;;;;100.47;61.73;;;14.80;60.40;;;;;;5055227;28;20460;-67
2021/06/03 00:41:22;;;;;;;49.83;33.57;;;14.80;60.40;;;;;;5055505;28;20841;-67
2021/06/03 00:43:50;;;;;;;34.25;22.40;;;14.80;60.40;;;;;;5055060;28;20476;-66
2021/06/03 00:46:17;;;;;;;18.63;11.27;;;14.90;60.40;;;;;;5055124;28;20194;-67
2021/06/03 00:48:44;;;;;;;31.23;19.47;;;14.90;60.20;;;;;;5055035;28;20428;-66
2021/06/03 00:51:11;;;;;;;11.87;8.73;;;14.90;60.60;;;;;;5055270;28;20468;-67
2021/06/03 00:53:39;;;;;;;8.60;5.33;;;14.90;60.80;;;;;;5054714;28;20433;-66
2021/06/03 00:56:06;;;;;;;6.03;5.00;;;14.90;60.80;;;;;;5054956;28;20456;-67
2021/06/03 00:58:35;;;;;;;9.40;6.10;;;14.80;60.30;;;;;;5053853;28;20445;-66
2021/06/03 01:01:04;;;;;;;10.00;6.53;;;14.80;60.60;;;;;;5054963;28;20444;-66
2021/06/03 01:03:32;;;;;;;8.00;5.97;;;14.80;60.90;;;;;;5054608;28;20437;-67
2021/06/03 01:06:03;;;;;;;9.27;6.30;;;14.70;61.00;;;;;;5054878;28;20435;-66
2021/06/03 01:08:34;;;;;;;7.87;4.97;;;14.70;61.50;;;;;;5054360;28;20477;-67
2021/06/03 01:11:06;;;;;;;6.43;5.07;;;14.60;61.30;;;;;;5054673;28;20448;-67
2021/06/03 01:13:40;;;;;;;13.23;7.07;;;14.60;61.60;;;;;;5054455;28;20456;-67
2021/06/03 01:16:13;;;;;;;26.30;15.40;;;14.60;62.30;;;;;;5054593;28;20891;-66
2021/06/03 01:18:41;;;;;;;19.70;11.13;;;14.60;62.50;;;;;;5054470;28;20798;-67
2021/06/03 01:21:13;;;;;;;38.03;18.43;;;14.60;62.90;;;;;;5054551;28;20433;-66
2021/06/03 01:23:45;;;;;;;16.80;10.17;;;14.50;63.20;;;;;;5053807;28;20437;-67
2021/06/03 01:26:16;;;;;;;16.73;9.87;;;14.50;64.00;;;;;;5054739;28;20433;-66
2021/06/03 01:28:44;;;;;;;13.87;8.90;;;14.50;64.00;;;;;;5054536;28;20592;-66
2021/06/03 01:31:10;;;;;;;17.17;12.10;;;14.60;64.10;;;;;;5054499;28;20803;-67
2021/06/03 01:33:41;;;;;;;11.27;7.57;;;14.60;64.20;;;;;;5053204;28;20859;-68
2021/06/03 01:36:11;;;;;;;6.10;4.73;;;14.60;63.50;;;;;;5054227;28;20441;-67
2021/06/03 01:38:39;;;;;;;11.10;8.17;;;14.70;64.00;;;;;;5053395;28;20931;-67
2021/06/03 01:41:08;;;;;;;15.40;10.57;;;14.70;64.70;;;;;;5054191;28;20522;-67
2021/06/03 01:43:38;;;;;;;18.45;12.23;;;14.70;63.60;;;;;;5053168;28;20442;-67
2021/06/03 01:46:05;;;;;;;5.13;4.40;;;14.70;63.70;;;;;;5054047;28;20662;-67
2021/06/03 01:48:32;;;;;;;33.60;17.57;;;14.70;64.10;;;;;;5053456;28;20843;-67
2021/06/03 01:51:01;;;;;;;5.40;4.90;;;14.70;64.00;;;;;;5053774;28;20842;-66
2021/06/03 01:53:29;;;;;;;6.17;4.93;;;14.80;63.80;;;;;;5053272;28;20520;-66
2021/06/03 01:56:02;;;;;;;6.37;3.90;;;14.80;63.50;;;;;;5053032;28;20452;-68
2021/06/03 01:58:30;;;;;;;5.73;4.50;;;14.80;63.50;;;;;;5053523;28;20437;-66
2021/06/03 02:00:59;;;;;;;4.20;3.70;;;14.90;63.40;;;;;;5053364;28;20988;-68
2021/06/03 02:03:26;;;;;;;4.83;3.70;;;14.90;63.50;;;;;;5053293;28;20437;-66
2021/06/03 02:05:53;;;;;;;7.40;5.17;;;14.90;63.20;;;;;;5053850;28;20441;-67
2021/06/03 02:08:20;;;;;;;9.47;3.87;;;14.80;63.50;;;;;;5053499;28;20507;-67
2021/06/03 02:10:47;;;;;;;10.60;6.93;;;14.80;63.80;;;;;;5053425;28;20445;-67
2021/06/03 02:13:16;;;;;;;8.77;4.80;;;14.80;63.90;;;;;;5052894;28;20460;-67
2021/06/03 02:15:52;;;;;;;11.80;4.37;;;14.80;64.10;;;;;;5053476;28;20436;-67
2021/06/03 02:18:23;;;;;;;5.20;4.20;;;14.80;64.00;;;;;;5053050;28;20935;-67
2021/06/03 02:20:52;;;;;;;5.70;3.67;;;14.80;63.70;;;;;;5053392;28;20452;-66
2021/06/03 02:23:20;;;;;;;10.30;6.73;;;14.80;63.80;;;;;;5052536;28;20433;-67
2021/06/03 02:25:48;;;;;;;48.43;24.27;;;14.80;63.60;;;;;;5053640;28;20476;-66
2021/06/03 02:28:17;;;;;;;43.10;30.63;;;14.80;63.70;;;;;;5053015;28;20484;-67
2021/06/03 02:30:45;;;;;;;12.53;8.67;;;14.90;63.70;;;;;;5053443;28;20444;-67
2021/06/03 02:33:11;;;;;;;15.70;9.40;;;14.90;63.40;;;;;;5052685;28;20993;-67
2021/06/03 02:35:39;;;;;;;8.70;5.77;;;14.90;63.30;;;;;;5053090;28;20958;-66
2021/06/03 02:38:07;;;;;;;18.53;12.17;;;15.00;63.00;;;;;;5052634;28;20455;-67
2021/06/03 02:40:35;;;;;;;18.20;12.50;;;15.00;62.80;;;;;;5052648;28;20802;-67
2021/06/03 02:43:01;;;;;;;7.97;5.07;;;14.90;62.80;;;;;;5052353;28;20939;-67
2021/06/03 02:45:31;;;;;;;8.83;6.83;;;14.90;62.80;;;;;;5052132;28;20796;-67
2021/06/03 02:47:58;;;;;;;6.73;5.97;;;14.90;62.70;;;;;;5052445;28;20487;-67
2021/06/03 02:50:26;;;;;;;8.10;5.93;;;14.90;62.70;;;;;;5052724;28;20469;-66
2021/06/03 02:52:55;;;;;;;6.90;5.07;;;15.00;62.80;;;;;;5052530;28;20441;-67
2021/06/03 02:55:24;;;;;;;7.10;4.30;;;15.00;62.60;;;;;;5052744;28;20448;-67
2021/06/03 02:57:51;;;;;;;5.73;4.33;;;14.90;63.10;;;;;;5052491;28;20455;-67
2021/06/03 03:00:20;;;;;;;8.20;4.63;;;14.90;63.00;;;;;;5052995;28;20717;-67
2021/06/03 03:02:46;;;;;;;5.83;4.47;;;14.90;63.30;;;;;;5052353;28;20433;-67
2021/06/03 03:05:14;;;;;;;4.67;4.13;;;14.80;63.50;;;;;;5052806;28;20441;-67
2021/06/03 03:07:40;;;;;;;9.27;4.13;;;14.80;63.70;;;;;;5052147;28;20486;-67
2021/06/03 03:10:12;;;;;;;4.28;3.85;;;14.70;64.00;;;;;;5052419;28;20456;-67
2021/06/03 03:12:38;;;;;;;5.80;4.40;;;14.60;63.70;;;;;;5051921;28;20179;-67
2021/06/03 03:15:07;;;;;;;4.90;4.30;;;14.50;63.70;;;;;;5052431;28;20449;-66
2021/06/03 03:17:33;;;;;;;5.03;4.20;;;14.40;64.00;;;;;;5051940;28;20437;-67
2021/06/03 03:20:00;;;;;;;4.90;4.00;;;14.30;64.10;;;;;;5052481;28;20463;-66
2021/06/03 03:22:27;;;;;;;4.60;3.67;;;14.20;64.50;;;;;;5052087;28;20440;-67
2021/06/03 03:24:53;;;;;;;6.25;4.22;;;14.10;64.50;;;;;;5052152;28;20464;-67
2021/06/03 03:27:21;;;;;;;4.40;3.83;;;14.10;65.40;;;;;;5052110;28;20217;-66
2021/06/03 03:29:48;;;;;;;7.55;3.70;;;14.00;65.60;;;;;;5052338;28;20198;-66
2021/06/03 03:32:15;;;;;;;6.97;4.22;;;14.00;66.00;;;;;;5052000;28;20274;-67
2021/06/03 03:34:41;;;;;;;5.68;3.90;;;14.00;66.20;;;;;;5052562;28;20197;-66
2021/06/03 03:37:08;;;;;;;6.55;3.90;;;14.00;66.60;;;;;;5051853;28;20206;-66
2021/06/03 03:39:35;;;;;;;5.80;5.00;;;14.00;67.20;;;;;;5052074;28;20194;-67
2021/06/03 03:42:01;;;;;;;4.13;3.50;;;14.00;67.70;;;;;;5052072;28;20193;-67
2021/06/03 03:44:29;;;;;;;4.85;4.35;;;14.00;67.60;;;;;;5052290;28;20221;-67
2021/06/03 03:46:56;;;;;;;5.45;3.85;;;14.00;66.70;;;;;;5051385;28;20699;-67
2021/06/03 03:49:23;;;;;;;5.65;4.15;;;14.00;66.90;;;;;;5052289;28;20572;-67
2021/06/03 03:51:50;;;;;;;5.90;4.27;;;13.90;67.10;;;;;;5051744;28;20182;-67
2021/06/03 03:54:16;;;;;;;5.57;4.53;;;13.90;66.90;;;;;;5052269;28;20874;-68
2021/06/03 03:56:43;;;;;;;7.97;4.43;;;13.80;67.90;;;;;;5053728;28;20276;-68
2021/06/03 03:59:09;;;;;;;4.93;4.43;;;13.70;67.90;;;;;;5056105;28;20190;-68
2021/06/03 04:01:37;;;;;;;5.00;4.45;;;13.70;68.20;;;;;;5055399;28;20183;-67
2021/06/03 04:04:04;;;;;;;6.97;5.20;;;13.70;68.30;;;;;;5056313;28;20198;-67
2021/06/03 04:06:30;;;;;;;5.93;4.50;;;13.70;68.60;;;;;;5055335;28;20645;-68
2021/06/03 04:08:57;;;;;;;6.85;4.88;;;13.80;69.10;;;;;;5056418;28;20445;-68
2021/06/03 04:11:24;;;;;;;6.43;4.78;;;13.80;69.40;;;;;;5055706;28;20710;-68
2021/06/03 04:13:51;;;;;;;6.35;4.80;;;13.70;69.80;;;;;;5036205;28;20199;-67
2021/06/03 04:16:18;;;;;;;5.78;4.00;;;13.80;69.80;;;;;;5046694;28;20202;-68
2021/06/03 04:18:46;;;;;;;5.13;4.28;;;13.70;69.90;;;;;;5056153;28;20560;-67
2021/06/03 04:21:12;;;;;;;5.75;3.90;;;13.80;70.40;;;;;;5055735;28;20252;-67
2021/06/03 04:23:39;;;;;;;6.78;4.97;;;13.80;70.20;;;;;;5055207;28;20197;-67
2021/06/03 04:26:06;;;;;;;5.00;4.00;;;13.90;70.00;;;;;;5055760;28;20680;-68
2021/06/03 04:28:32;;;;;;;7.15;4.43;;;13.90;70.50;;;;;;5055778;28;20484;-68
2021/06/03 04:30:59;;;;;;;8.00;5.50;;;13.90;70.70;;;;;;5055288;28;20645;-68
2021/06/03 04:33:25;;;;;;;6.85;5.10;;;13.90;70.90;;;;;;5055632;28;20440;-68
2021/06/03 04:35:53;;;;;;;10.30;4.73;;;14.00;71.10;;;;;;5055220;28;20187;-68
2021/06/03 04:38:20;;;;;;;7.53;4.13;;;14.10;71.10;;;;;;5055616;28;20436;-69
2021/06/03 04:40:48;;;;;;;7.40;4.47;;;14.10;70.50;;;;;;5055620;28;20264;-68
2021/06/03 04:43:15;;;;;;;5.40;3.40;;;14.10;70.70;;;;;;5055317;28;20187;-67
2021/06/03 04:45:41;;;;;;;5.10;4.30;;;14.20;70.60;;;;;;5055067;28;20440;-68
2021/06/03 04:48:09;;;;;;;9.55;4.53;;;14.20;70.80;;;;;;5055464;28;20994;-68
2021/06/03 04:50:38;;;;;;;5.77;4.10;;;14.30;71.00;;;;;;5055116;28;20191;-68
2021/06/03 04:53:07;;;;;;;5.45;4.10;;;14.40;70.90;;;;;;5055178;28;20472;-66
2021/06/03 04:55:34;;;;;;;4.40;3.47;;;14.50;70.70;;;;;;5055230;28;20213;-68
2021/06/03 04:58:02;;;;;;;4.53;4.00;;;14.60;70.50;;;;;;5035203;28;20195;-68
2021/06/03 05:00:30;;;;;;;4.60;3.20;;;14.80;70.00;;;;;;5041504;28;20440;-68
2021/06/03 05:02:58;;;;;;;4.83;3.60;;;14.90;70.30;;;;;;5054870;28;20448;-68
2021/06/03 05:05:25;;;;;;;4.27;3.87;;;15.00;70.10;;;;;;5054396;28;20437;-68
2021/06/03 05:07:53;;;;;;;5.60;3.93;;;15.20;70.00;;;;;;5054238;28;20488;-67
2021/06/03 05:10:22;;;;;;;5.20;3.87;;;15.30;69.90;;;;;;5054759;28;20433;-68
2021/06/03 05:12:49;;;;;;;5.47;3.87;;;15.50;69.30;;;;;;5054999;28;20448;-69
2021/06/03 05:15:16;;;;;;;5.20;3.93;;;15.50;68.60;;;;;;5054835;28;20780;-69
2021/06/03 05:17:43;;;;;;;4.37;3.93;;;15.70;68.80;;;;;;5055100;28;20440;-68
2021/06/03 05:20:12;;;;;;;6.73;3.67;;;15.80;68.00;;;;;;5054441;28;20452;-68
2021/06/03 05:22:40;;;;;;;5.10;3.90;;;15.90;67.80;;;;;;5054586;28;20440;-68
2021/06/03 05:25:09;;;;;;;5.87;4.33;;;16.10;68.30;;;;;;5054955;28;20971;-68
2021/06/03 05:27:41;;;;;;;4.30;3.47;;;16.30;68.30;;;;;;5054218;28;20495;-68
2021/06/03 05:30:11;;;;;;;4.37;3.23;;;16.40;67.70;;;;;;5054790;28;20498;-68
2021/06/03 05:32:38;;;;;;;4.27;3.83;;;16.60;67.50;;;;;;5054143;28;20446;-68
2021/06/03 05:35:07;;;;;;;3.87;3.13;;;16.70;66.80;;;;;;5054763;28;20433;-68
2021/06/03 05:37:34;;;;;;;3.80;3.10;;;16.90;66.10;;;;;;5054284;28;20444;-68
2021/06/03 05:40:00;;;;;;;4.37;3.10;;;17.00;67.30;;;;;;5054689;28;20437;-68
2021/06/03 05:42:27;;;;;;;6.67;3.07;;;17.20;66.00;;;;;;5054157;28;20452;-68
2021/06/03 05:44:55;;;;;;;5.60;4.27;;;17.30;66.40;;;;;;5054814;28;20510;-69
2021/06/03 05:47:21;;;;;;;5.70;3.80;;;17.50;66.90;;;;;;5054069;28;20476;-68
2021/06/03 05:49:47;;;;;;;3.80;3.40;;;17.70;66.80;;;;;;5054349;28;20441;-68
2021/06/03 05:52:14;;;;;;;4.50;3.33;;;17.90;66.40;;;;;;5053896;28;20444;-68
2021/06/03 05:54:41;;;;;;;5.10;3.10;;;18.10;66.00;;;;;;5054434;28;20460;-68
2021/06/03 05:57:07;;;;;;;3.93;2.47;;;18.30;64.60;;;;;;5053879;28;20440;-68
2021/06/03 05:59:35;;;;;;;4.00;3.23;;;18.40;64.00;;;;;;5054081;28;20437;-68
2021/06/03 06:02:05;;;;;;;3.90;2.93;;;18.60;64.30;;;;;;5053479;28;20526;-69
2021/06/03 06:07:16;;;;;;;4.20;2.83;;;18.80;60.80;;;;;;5053786;28;20558;-68
2021/06/03 06:09:43;;;;;;;7.30;3.10;;;18.90;59.40;;;;;;5053971;28;20472;-68
2021/06/03 06:12:10;;;;;;;2.87;2.20;;;19.00;59.50;;;;;;5053454;28;20432;-68
2021/06/03 06:14:36;;;;;;;3.77;2.80;;;19.10;59.20;;;;;;5053979;28;20433;-69
2021/06/03 06:17:04;;;;;;;4.50;2.80;;;19.20;59.60;;;;;;5053637;28;20433;-68
2021/06/03 06:19:31;;;;;;;4.63;2.83;;;19.40;60.00;;;;;;5053458;28;20437;-68
2021/06/03 06:21:58;;;;;;;5.17;3.07;;;19.50;60.70;;;;;;5053712;28;20480;-68
2021/06/03 06:24:24;;;;;;;6.33;3.30;;;19.70;60.50;;;;;;5053082;28;20464;-68
2021/06/03 06:26:51;;;;;;;3.90;2.67;;;19.80;59.80;;;;;;5053086;28;20437;-68
2021/06/03 06:29:17;;;;;;;3.80;2.67;;;19.90;59.20;;;;;;5053451;28;20492;-68
2021/06/03 06:31:44;;;;;;;6.30;3.27;;;20.00;59.10;;;;;;5053065;28;20499;-67
2021/06/03 06:34:12;;;;;;;4.37;3.23;;;20.20;59.00;;;;;;5053187;28;20823;-69
2021/06/03 06:36:39;;;;;;;3.53;2.30;;;20.20;57.70;;;;;;5052801;28;20943;-68
2021/06/03 06:39:06;;;;;;;5.07;3.90;;;20.40;58.40;;;;;;5052959;28;20943;-69
2021/06/03 06:41:32;;;;;;;4.60;3.33;;;20.50;58.60;;;;;;5053458;28;20439;-69
2021/06/03 06:43:59;;;;;;;3.20;2.77;;;20.50;56.70;;;;;;5052941;28;20947;-70
2021/06/03 06:46:25;;;;;;;6.20;3.97;;;20.60;56.90;;;;;;5052682;28;21061;-71
2021/06/03 06:48:52;;;;;;;5.33;3.93;;;20.70;57.80;;;;;;5053267;28;20484;-69
2021/06/03 06:51:20;;;;;;;4.00;3.03;;;20.70;58.10;;;;;;5052519;28;20453;-68
2021/06/03 06:53:47;;;;;;;7.90;5.70;;;20.70;57.10;;;;;;5053191;28;20441;-68
2021/06/03 06:56:13;;;;;;;3.83;3.30;;;20.80;57.70;;;;;;5052754;28;20467;-68
2021/06/03 06:58:40;;;;;;;5.13;3.00;;;20.90;56.70;;;;;;5053536;28;20495;-68
2021/06/03 07:01:06;;;;;;;3.00;2.37;;;21.00;56.10;;;;;;5052412;28;20567;-68
2021/06/03 07:03:33;;;;;;;3.77;2.40;;;21.00;56.20;;;;;;5052983;28;20433;-68
2021/06/03 07:05:59;;;;;;;3.23;2.93;;;21.20;57.20;;;;;;5052188;28;20441;-68
2021/06/03 07:08:27;;;;;;;5.53;2.77;;;21.30;56.90;;;;;;5052770;28;20891;-68
2021/06/03 07:10:55;;;;;;;3.23;2.57;;;21.40;56.70;;;;;;5051370;28;20433;-68
2021/06/03 07:13:21;;;;;;;7.80;2.70;;;21.50;54.20;;;;;;5052948;28;20867;-68
2021/06/03 07:15:48;;;;;;;4.50;3.03;;;21.50;54.70;;;;;;5052642;28;20439;-68
2021/06/03 07:18:14;;;;;;;3.40;2.20;;;21.60;54.50;;;;;;5053067;28;20919;-68
2021/06/03 07:20:41;;;;;;;4.00;2.97;;;21.60;55.20;;;;;;5051889;28;20836;-68
2021/06/03 07:23:08;;;;;;;4.60;2.97;;;21.80;54.70;;;;;;5052585;28;20467;-68
2021/06/03 07:25:40;;;;;;;2.60;2.10;;;21.90;54.40;;;;;;5052056;28;20464;-69
2021/06/03 07:28:08;;;;;;;3.10;2.73;;;22.00;55.00;;;;;;5052550;28;20554;-68
2021/06/03 07:30:35;;;;;;;3.87;3.00;;;22.10;54.00;;;;;;5051836;28;20547;-68
2021/06/03 07:33:04;;;;;;;3.80;3.03;;;22.20;53.20;;;;;;5052676;28;20498;-68
2021/06/03 07:35:32;;;;;;;3.27;2.70;;;22.30;52.80;;;;;;5051976;28;20942;-69
2021/06/03 07:37:58;;;;;;;3.00;2.20;;;22.50;53.70;;;;;;5052281;28;20502;-68
2021/06/03 07:40:27;;;;;;;5.70;2.33;;;22.60;53.40;;;;;;5052589;28;20494;-68
2021/06/03 07:42:56;;;;;;;2.70;1.80;;;22.80;53.00;;;;;;5052756;28;20480;-68
2021/06/03 07:45:26;;;;;;;4.40;2.93;;;22.90;53.00;;;;;;5052174;28;20437;-68
2021/06/03 07:47:55;;;;;;;3.37;2.13;;;23.10;52.50;;;;;;5052510;28;20476;-68
2021/06/03 07:50:22;;;;;;;3.53;2.27;;;23.20;50.20;;;;;;5051113;28;20440;-68
2021/06/03 07:52:50;;;;;;;4.60;3.00;;;23.30;50.30;;;;;;5052490;28;20455;-68
2021/06/03 07:55:19;;;;;;;6.70;2.30;;;23.50;51.30;;;;;;5052089;28;20464;-68
2021/06/03 07:57:48;;;;;;;3.20;2.33;;;23.60;51.00;;;;;;5052285;28;20433;-69
2021/06/03 08:00:19;;;;;;;5.00;2.50;;;23.70;51.70;;;;;;5052086;28;20794;-68
2021/06/03 08:02:47;;;;;;;5.27;3.73;;;23.90;51.70;;;;;;5052793;28;20459;-68
2021/06/03 08:05:18;;;;;;;4.50;3.37;;;24.00;50.60;;;;;;5051496;28;20429;-68
2021/06/03 08:07:45;;;;;;;4.47;3.17;;;24.10;50.30;;;;;;5050859;28;20480;-68
2021/06/03 08:10:15;;;;;;;4.97;4.03;;;24.20;49.90;;;;;;5050649;28;20467;-68
2021/06/03 08:12:44;;;;;;;5.40;3.67;;;24.30;49.70;;;;;;5052050;28;20867;-69
2021/06/03 08:15:13;;;;;;;3.03;2.27;;;24.40;49.30;;;;;;5050521;28;20548;-68
2021/06/03 08:17:42;;;;;;;3.87;2.20;;;24.50;50.70;;;;;;5051530;28;20440;-68
2021/06/03 08:20:12;;;;;;;3.83;2.40;;;24.70;50.60;;;;;;5051156;28;20433;-68
2021/06/03 08:22:39;;;;;;;5.90;2.70;;;24.80;50.50;;;;;;5051469;28;20490;-68
2021/06/03 08:25:07;;;;;;;2.33;1.90;;;25.00;49.60;;;;;;5046956;28;20476;-68
2021/06/03 08:27:33;;;;;;;3.17;1.93;;;25.10;48.40;;;;;;5051140;28;20476;-68
2021/06/03 08:30:02;;;;;;;2.93;2.20;;;25.10;48.00;;;;;;5055755;28;20800;-69
2021/06/03 08:32:28;;;;;;;4.13;2.47;;;25.20;47.70;;;;;;5052373;28;20433;-68
2021/06/03 08:34:56;;;;;;;4.50;2.50;;;25.20;47.50;;;;;;5051335;28;20977;-68
2021/06/03 08:37:23;;;;;;;3.83;2.23;;;25.30;46.80;;;;;;5051631;28;20789;-69
2021/06/03 08:39:51;;;;;;;4.63;2.27;;;25.40;47.40;;;;;;5051559;28;20444;-68
2021/06/03 08:42:20;;;;;;;8.07;5.87;;;25.60;48.00;;;;;;5050351;28;20437;-73
2021/06/03 08:44:47;;;;;;;5.50;4.03;;;25.70;47.20;;;;;;5052551;28;20437;-69
2021/06/03 08:47:14;;;;;;;7.33;3.03;;;25.80;46.40;;;;;;5054847;28;20433;-68
2021/06/03 08:49:41;;;;;;;4.07;2.00;;;25.90;46.00;;;;;;5060400;28;20791;-68
2021/06/03 08:52:13;;;;;;;3.03;2.00;;;26.00;45.90;;;;;;5061916;28;20526;-68
2021/06/03 08:54:40;;;;;;;3.17;2.20;;;26.10;46.30;;;;;;5054929;28;20499;-68
2021/06/03 08:57:12;;;;;;;3.23;2.37;;;26.10;44.40;;;;;;5072359;28;20488;-69
2021/06/03 08:59:39;;;;;;;4.47;2.67;;;26.20;44.60;;;;;;5073079;28;20472;-67
2021/06/03 09:02:06;;;;;;;2.70;2.03;;;26.20;44.80;;;;;;5060304;28;20524;-68
2021/06/03 09:04:33;;;;;;;3.27;2.30;;;26.30;45.80;;;;;;5055265;28;20471;-68
2021/06/03 09:06:59;;;;;;;2.53;1.97;;;26.40;45.80;;;;;;5058074;28;20504;-68
2021/06/03 09:09:29;;;;;;;3.67;2.60;;;26.50;45.70;;;;;;5055068;28;20483;-68
2021/06/03 09:12:12;;;;;;;3.50;2.60;;;26.60;44.50;;;;;;5054728;28;20438;-68
2021/06/03 09:14:39;;;;;;;3.10;2.03;;;26.70;44.90;;;;;;5072289;28;20441;-68
2021/06/03 09:17:06;;;;;;;4.90;3.70;;;26.80;45.00;;;;;;5061616;28;20440;-67
2021/06/03 09:19:33;;;;;;;4.70;2.43;;;26.90;44.90;;;;;;5054770;28;20487;-68
2021/06/03 09:22:03;;;;;;;4.47;2.10;;;27.00;44.00;;;;;;5055197;28;20441;-69
2021/06/03 09:24:33;;;;;;;5.20;2.33;;;27.10;43.20;;;;;;5050587;28;20468;-68
2021/06/03 09:27:02;;;;;;;4.93;2.60;;;27.20;42.60;;;;;;5054246;28;20454;-68
2021/06/03 09:29:32;;;;;;;3.53;2.20;;;27.30;43.50;;;;;;5054625;28;20477;-68
2021/06/03 09:32:04;;;;;;;3.53;2.60;;;27.40;42.90;;;;;;5050541;28;20443;-68
2021/06/03 09:34:32;;;;;;;4.93;2.23;;;27.50;43.40;;;;;;5054634;28;20528;-67
2021/06/03 09:37:00;;;;;;;5.50;2.40;;;27.60;43.80;;;;;;5053985;28;20442;-68
2021/06/03 09:39:28;;;;;;;2.43;1.60;;;27.70;43.90;;;;;;5050338;28;20458;-68
2021/06/03 09:41:59;;;;;;;2.90;2.10;;;27.80;43.70;;;;;;5054184;28;20444;-68
2021/06/03 09:44:32;;;;;;;4.83;2.70;;;27.90;44.10;;;;;;5048442;28;20479;-69
2021/06/03 09:47:03;;;;;;;5.53;2.53;;;28.10;43.30;;;;;;5048212;28;20929;-68
2021/06/03 09:49:32;;;;;;;4.03;2.60;;;28.20;41.80;;;;;;5053425;28;20520;-68
2021/06/03 09:52:01;;;;;;;3.43;2.03;;;28.30;40.50;;;;;;5052771;28;20939;-68
2021/06/03 09:54:28;;;;;;;6.10;2.10;;;28.10;39.60;;;;;;5052247;28;20441;-68
2021/06/03 09:57:05;;;;;;;4.83;2.23;;;28.10;40.20;;;;;;5053284;28;22082;-68
2021/06/03 09:59:34;;;;;;;3.90;2.33;;;28.10;39.00;;;;;;5053428;28;20458;-69
2021/06/03 10:02:06;;;;;;;3.87;2.37;;;28.10;41.20;;;;;;5052809;28;20440;-68
2021/06/03 10:04:41;;;;;;;4.10;2.37;;;28.30;42.10;;;;;;5053040;28;20787;-68
2021/06/03 10:07:10;;;;;;;3.73;2.37;;;28.40;41.60;;;;;;5048075;28;20807;-71
2021/06/03 10:10:00;;;;;;;3.70;2.50;;;28.50;41.30;;;;;;5054242;28;20489;-68
2021/06/03 10:12:42;;;;;;;4.37;2.77;;;28.50;41.00;;;;;;5069119;28;20520;-70
2021/06/03 10:15:13;;;;;;;8.57;3.60;;;28.60;40.40;;;;;;5068214;28;20443;-68
2021/06/03 10:17:47;;;;;;;4.13;3.10;;;28.60;41.70;;;;;;5054469;28;20504;-69
2021/06/03 10:20:21;;;;;;;5.80;4.57;;;28.70;40.90;;;;;;5052065;28;20880;-69
2021/06/03 10:22:50;;;;;;;3.40;2.87;;;28.80;39.40;;;;;;5013503;28;20502;-69
2021/06/03 10:25:19;;;;;;;4.10;3.30;;;28.80;38.70;;;;;;4990582;28;20467;-69
2021/06/03 10:27:49;;;;;;;3.27;2.30;;;28.80;38.00;;;;;;4975841;28;20488;-69
2021/06/03 10:30:19;;;;;;;3.07;2.77;;;28.70;36.50;;;;;;4973230;28;20499;-68
2021/06/03 10:32:49;;;;;;;3.20;2.30;;;28.70;38.30;;;;;;4973084;28;20804;-69
2021/06/03 10:35:18;;;;;;;7.30;2.43;;;28.70;38.50;;;;;;4971289;28;20468;-69
2021/06/03 10:37:45;;;;;;;5.23;2.53;;;28.70;36.50;;;;;;4973571;28;20495;-69
2021/06/03 10:40:16;;;;;;;7.03;2.50;;;28.70;39.80;;;;;;4977739;28;20456;-69
2021/06/03 10:42:43;;;;;;;3.70;2.70;;;28.80;38.10;;;;;;4988420;28;20489;-69
2021/06/03 10:45:14;;;;;;;2.93;2.10;;;28.80;37.70;;;;;;4987474;28;20530;-66
2021/06/03 10:47:43;;;;;;;3.00;2.40;;;28.90;37.00;;;;;;5008769;28;21013;-67
2021/06/03 10:50:13;;;;;;;3.00;2.50;;;29.00;37.50;;;;;;5002133;28;20935;-67
2021/06/03 10:52:40;;;;;;;4.13;2.47;;;29.00;37.50;;;;;;4989311;28;20448;-69
2021/06/03 10:55:08;;;;;;;3.50;2.37;;;29.00;35.80;;;;;;4992890;28;20447;-69
2021/06/03 10:57:50;;;;;;;6.10;3.67;;;29.00;36.20;;;;;;4991137;28;20432;-67
2021/06/03 11:00:35;;;;;;;3.20;2.63;;;28.90;34.40;;;;;;4990931;28;20435;-68
2021/06/03 11:03:05;;;;;;;4.30;2.60;;;28.90;33.50;;;;;;4991987;28;20438;-69
2021/06/03 11:05:36;;;;;;;2.83;2.33;;;28.80;33.60;;;;;;4999690;28;20450;-68
2021/06/03 11:08:28;;;;;;;2.87;2.03;;;28.80;35.60;;;;;;4987277;28;20834;-67
2021/06/03 11:11:17;;;;;;;4.27;2.40;;;28.80;34.90;;;;;;5001184;28;20446;-69
2021/06/03 11:14:09;;;;;;;3.20;2.13;;;28.90;36.80;;;;;;4987970;28;20431;-68
2021/06/03 11:16:53;;;;;;;5.60;2.40;;;29.00;37.50;;;;;;4982864;28;20483;-68
2021/06/03 11:19:22;;;;;;;5.60;2.90;;;29.20;38.60;;;;;;4988199;28;20487;-69
2021/06/03 11:22:08;;;;;;;3.80;2.63;;;29.30;38.30;;;;;;4989549;28;20946;-68
2021/06/03 11:24:52;;;;;;;3.47;2.07;;;29.30;36.20;;;;;;4991619;28;20471;-68
2021/06/03 11:27:36;;;;;;;3.10;2.80;;;29.10;36.50;;;;;;4993245;28;20906;-68
2021/06/03 11:30:06;;;;;;;3.97;2.53;;;29.00;38.00;;;;;;4990224;28;20474;-68
2021/06/03 11:32:40;;;;;;;3.97;2.40;;;29.00;38.10;;;;;;4991983;28;20451;-67
2021/06/03 11:35:10;;;;;;;2.80;2.30;;;29.10;40.70;;;;;;4989361;28;20538;-67
2021/06/03 11:37:51;;;;;;;5.97;2.90;;;29.30;38.10;;;;;;4992330;28;20439;-67
2021/06/03 11:40:24;;;;;;;4.10;2.80;;;29.40;37.80;;;;;;4989627;28;20443;-67
2021/06/03 11:43:08;;;;;;;3.20;2.80;;;29.40;37.00;;;;;;5003540;28;20956;-68
2021/06/03 11:45:36;;;;;;;5.83;2.70;;;29.50;36.10;;;;;;5009771;28;20522;-68
2021/06/03 11:48:12;;;;;;;4.53;2.70;;;29.60;36.80;;;;;;4995831;28;20475;-68
2021/06/03 11:50:57;;;;;;;5.27;2.93;;;29.80;37.80;;;;;;4989199;28;20443;-67
2021/06/03 11:53:25;;;;;;;3.27;2.80;;;30.00;38.10;;;;;;4992135;28;20441;-68
2021/06/03 11:55:56;;;;;;;5.30;2.80;;;30.20;36.30;;;;;;4992693;28;20436;-68
2021/06/03 11:58:30;;;;;;;3.87;2.73;;;30.50;36.60;;;;;;5007608;28;21045;-68
2021/06/03 12:01:00;;;;;;;5.83;2.73;;;30.70;35.40;;;;;;5008973;28;20441;-68
2021/06/03 12:03:36;;;;;;;4.47;2.60;;;30.80;35.20;;;;;;4992740;28;20442;-68
2021/06/03 12:06:09;;;;;;;5.20;4.17;;;31.00;34.70;;;;;;4992640;28;20437;-70
2021/06/03 12:08:49;;;;;;;4.03;2.80;;;31.10;33.80;;;;;;4989102;28;20495;-68
2021/06/03 12:11:24;;;;;;;5.33;3.67;;;31.20;33.30;;;;;;4991784;28;20867;-68
2021/06/03 12:14:05;;;;;;;4.03;2.80;;;31.20;32.80;;;;;;4990067;28;20480;-68
2021/06/03 12:16:37;;;;;;;3.13;2.37;;;31.10;32.60;;;;;;5006939;28;20447;-67
2021/06/03 12:19:09;;;;;;;3.53;2.50;;;31.00;31.90;;;;;;4996649;28;21028;-67
2021/06/03 12:21:37;;;;;;;3.23;2.80;;;31.00;32.00;;;;;;5004118;28;20464;-69
2021/06/03 12:24:05;;;;;;;5.83;2.90;;;31.00;33.20;;;;;;5013943;28;20493;-68
2021/06/03 12:26:35;;;;;;;4.87;3.70;;;31.00;33.00;;;;;;4997635;28;20461;-68
2021/06/03 12:29:03;;;;;;;3.57;2.90;;;31.00;32.50;;;;;;4996766;28;20466;-68
2021/06/03 12:31:30;;;;;;;5.13;2.60;;;31.00;31.90;;;;;;4997519;28;20442;-68
2021/06/03 12:33:59;;;;;;;3.60;2.90;;;31.10;32.50;;;;;;4996153;28;20446;-68
2021/06/03 12:36:33;;;;;;;5.00;2.53;;;31.20;32.70;;;;;;4995872;28;20480;-68
2021/06/03 12:39:02;;;;;;;7.27;2.60;;;31.20;32.50;;;;;;5013485;28;20439;-68
2021/06/03 12:41:31;;;;;;;7.63;2.80;;;31.30;32.90;;;;;;4998462;28;20940;-68
2021/06/03 12:44:00;;;;;;;6.83;3.43;;;31.30;33.00;;;;;;4996157;28;20453;-67
2021/06/03 12:46:35;;;;;;;4.13;2.67;;;31.40;32.20;;;;;;4999247;28;20445;-68
2021/06/03 12:49:09;;;;;;;4.73;2.50;;;31.30;32.10;;;;;;5013170;28;21435;-68
2021/06/03 12:51:46;;;;;;;4.33;2.37;;;31.20;32.30;;;;;;4994792;28;20442;-68
2021/06/03 12:54:12;;;;;;;3.20;2.57;;;31.10;30.70;;;;;;4995856;28;20489;-67
2021/06/03 12:56:39;;;;;;;4.30;3.10;;;31.10;31.40;;;;;;4996855;28;21008;-67
2021/06/03 12:59:19;;;;;;;4.50;3.57;;;31.00;32.90;;;;;;4991669;28;20439;-68